createdAt,value
2023-03-21T00:00:19.324Z,92.31
2023-03-21T00:01:19.505Z,92.10
2023-03-21T00:02:19.325Z,92.10
2023-03-21T00:03:19.378Z,92.21
2023-03-21T00:04:19.279Z,92.31
2023-03-21T00:05:19.301Z,92.10
2023-03-21T00:06:19.559Z,92.31
2023-03-21T00:07:19.268Z,92.31
2023-03-21T00:08:19.303Z,92.41
2023-03-21T00:09:19.335Z,92.72
2023-03-21T00:10:29.766Z,92.51
2023-03-21T00:11:19.209Z,92.61
2023-03-21T00:12:19.292Z,92.82
2023-03-21T00:13:19.248Z,92.61
2023-03-21T00:14:19.237Z,92.61
2023-03-21T00:15:22.575Z,92.61
2023-03-21T00:16:23.108Z,92.72
2023-03-21T00:34:15.217Z,92.82
2023-03-21T00:34:27.090Z,94.46
2023-03-21T00:35:53.696Z,94.67
2023-03-21T00:36:20.190Z,94.98
2023-03-21T00:37:20.206Z,94.98
2023-03-21T00:38:20.174Z,94.98
2023-03-21T00:39:20.164Z,95.18
2023-03-21T00:40:27.916Z,95.28
2023-03-21T00:41:35.042Z,95.28
2023-03-21T00:42:20.104Z,95.39
2023-03-21T00:43:20.121Z,95.59
2023-03-21T00:44:20.084Z,95.69
2023-03-21T00:45:20.097Z,95.59
2023-03-21T00:47:20.325Z,95.49
2023-03-21T00:48:21.340Z,95.69
2023-03-21T00:49:21.301Z,95.79
2023-03-21T00:50:21.302Z,95.90
2023-03-21T00:51:21.271Z,96.15
2023-03-21T00:52:30.789Z,96.10
2023-03-21T00:53:21.260Z,96.20
2023-03-21T00:54:21.232Z,96.20
2023-03-21T00:55:21.201Z,96.20
2023-03-21T00:56:21.230Z,96.25
2023-03-21T00:57:29.347Z,96.25
2023-03-21T00:58:21.184Z,96.35
2023-03-21T00:59:21.201Z,96.45
2023-03-21T01:00:21.149Z,96.45
2023-03-21T01:01:21.160Z,96.45
2023-03-21T01:02:21.230Z,96.45
2023-03-21T01:03:25.362Z,96.35
2023-03-21T01:04:21.229Z,96.35
2023-03-21T01:05:21.098Z,96.45
2023-03-21T01:06:21.105Z,96.66
2023-03-21T01:07:21.098Z,96.62
2023-03-21T01:08:26.854Z,96.62
2023-03-21T01:09:21.062Z,96.62
2023-03-21T01:10:21.070Z,96.77
2023-03-21T01:11:21.041Z,96.87
2023-03-21T01:12:21.063Z,96.87
2023-03-21T01:13:21.009Z,96.82
2023-03-21T01:14:23.541Z,96.82
2023-03-21T01:15:20.993Z,96.97
2023-03-21T01:16:21.072Z,97.07
2023-03-21T01:17:20.967Z,97.07
2023-03-21T01:18:20.986Z,96.97
2023-03-21T01:19:27.426Z,96.87
2023-03-21T01:20:20.942Z,97.07
2023-03-21T01:21:20.925Z,97.07
2023-03-21T01:22:20.937Z,97.07
2023-03-21T01:23:20.931Z,97.07
2023-03-21T01:24:20.971Z,97.17
2023-03-21T01:25:22.659Z,97.07
2023-03-21T01:26:20.878Z,97.07
2023-03-21T01:27:20.889Z,97.17
2023-03-21T01:28:20.854Z,97.17
2023-03-21T01:29:20.833Z,97.17
2023-03-21T01:30:24.050Z,97.38
2023-03-21T01:31:20.841Z,97.69
2023-03-21T01:32:20.850Z,97.89
2023-03-21T01:33:20.863Z,98.10
2023-03-21T01:34:20.812Z,98.20
2023-03-21T01:35:20.789Z,98.30
2023-03-21T01:36:23.182Z,98.41
2023-03-21T01:37:20.776Z,98.41
2023-03-21T01:38:20.769Z,98.61
2023-03-21T01:39:20.760Z,98.82
2023-03-21T01:40:20.751Z,98.82
2023-03-21T01:41:20.709Z,98.92
2023-03-21T01:42:20.740Z,98.92
2023-03-21T01:43:20.697Z,99.02
2023-03-21T01:44:20.744Z,98.92
2023-03-21T01:45:20.689Z,98.92
2023-03-21T01:46:20.780Z,98.92
2023-03-21T01:47:20.641Z,98.82
2023-03-21T01:48:20.669Z,98.82
2023-03-21T01:49:20.674Z,98.61
2023-03-21T01:50:20.645Z,98.82
2023-03-21T01:51:20.627Z,98.92
2023-03-21T01:52:35.424Z,98.92
2023-03-21T01:53:20.582Z,99.02
2023-03-21T01:54:20.599Z,98.92
2023-03-21T01:55:20.562Z,99.12
2023-03-21T01:56:20.581Z,99.12
2023-03-21T01:57:20.984Z,99.12
2023-03-21T01:58:20.544Z,99.12
2023-03-21T01:59:20.525Z,99.12
2023-03-21T02:00:20.519Z,99.22
2023-03-21T02:01:20.516Z,99.22
2023-03-21T02:02:20.543Z,99.22
2023-03-21T02:03:33.340Z,99.12
2023-03-21T02:04:20.527Z,99.22
2023-03-21T02:05:20.446Z,99.33
2023-03-21T02:06:20.467Z,99.33
2023-03-21T02:07:20.489Z,99.33
2023-03-21T02:08:22.271Z,99.43
2023-03-21T02:09:20.407Z,99.33
2023-03-21T02:10:20.425Z,99.43
2023-03-21T02:11:20.400Z,99.54
2023-03-21T02:12:20.391Z,99.54
2023-03-21T02:13:20.401Z,99.54
2023-03-21T02:14:29.096Z,99.74
2023-03-21T02:15:20.354Z,99.84
2023-03-21T02:16:20.468Z,99.95
2023-03-21T02:17:20.332Z,99.95
2023-03-21T02:18:20.341Z,99.95
2023-03-21T02:19:29.597Z,99.99
2023-03-21T02:20:20.346Z,99.99
2023-03-21T02:21:20.283Z,99.99
2023-03-21T02:22:20.405Z,99.99
2023-03-21T02:23:20.257Z,99.99
2023-03-21T02:24:20.267Z,99.99
2023-03-21T02:25:24.762Z,99.99
2023-03-21T02:26:20.249Z,99.99
2023-03-21T02:27:20.239Z,99.99
2023-03-21T02:28:20.226Z,99.99
2023-03-21T02:29:20.201Z,99.99
2023-03-21T02:30:29.460Z,99.99
2023-03-21T02:31:20.251Z,99.99
2023-03-21T02:32:31.523Z,99.99
2023-03-21T02:33:20.174Z,99.99
2023-03-21T02:34:20.157Z,99.99
2023-03-21T02:35:20.148Z,99.99
2023-03-21T02:36:20.173Z,99.99
2023-03-21T02:37:23.591Z,99.99
2023-03-21T02:38:20.135Z,99.99
2023-03-21T02:39:20.089Z,99.99
2023-03-21T02:40:20.096Z,99.99
2023-03-21T02:41:20.191Z,99.99
2023-03-21T02:42:20.100Z,99.99
2023-03-21T02:43:23.312Z,99.99
2023-03-21T02:44:20.056Z,99.99
2023-03-21T02:45:20.025Z,99.99
2023-03-21T02:46:21.475Z,99.99
2023-03-21T02:47:19.993Z,99.99
2023-03-21T02:48:29.341Z,99.99
2023-03-21T02:49:20.015Z,99.99
2023-03-21T02:50:19.990Z,99.99
2023-03-21T02:51:19.988Z,99.99
2023-03-21T02:52:35.535Z,99.99
2023-03-21T02:53:19.943Z,99.99
2023-03-21T02:54:34.882Z,99.99
2023-03-21T02:55:19.927Z,99.99
2023-03-21T02:56:19.928Z,99.99
2023-03-21T02:57:19.917Z,99.99
2023-03-21T02:58:19.887Z,99.99
2023-03-21T02:59:19.920Z,99.99
2023-03-21T03:00:19.874Z,99.99
2023-03-21T03:01:19.861Z,99.99
2023-03-21T03:02:19.863Z,99.99
2023-03-21T03:03:33.044Z,99.99
2023-03-21T03:04:19.869Z,99.99
2023-03-21T03:05:21.916Z,99.99
2023-03-21T03:06:19.837Z,99.99
2023-03-21T03:07:19.796Z,99.99
2023-03-21T03:08:24.044Z,99.99
2023-03-21T03:09:19.807Z,99.99
2023-03-21T03:10:19.773Z,99.99
2023-03-21T03:11:19.751Z,99.99
2023-03-21T03:12:19.746Z,99.99
2023-03-21T03:13:19.723Z,99.99
2023-03-21T03:15:19.727Z,99.99
2023-03-21T03:16:19.703Z,99.99
2023-03-21T03:17:19.719Z,99.99
2023-03-21T03:18:19.696Z,99.99
2023-03-21T03:19:19.668Z,99.99
2023-03-21T03:20:19.674Z,99.99
2023-03-21T03:21:19.666Z,99.99
2023-03-21T03:22:19.652Z,99.99
2023-03-21T03:23:19.768Z,99.99
2023-03-21T03:24:19.620Z,99.99
2023-03-21T03:25:29.826Z,99.99
2023-03-21T03:26:19.658Z,99.99
2023-03-21T03:27:19.597Z,99.99
2023-03-21T03:28:19.594Z,99.99
2023-03-21T03:29:19.566Z,99.99
2023-03-21T03:30:19.605Z,99.99
2023-03-21T03:31:20.924Z,99.99
2023-03-21T03:32:19.552Z,99.99
2023-03-21T03:33:19.524Z,99.99
2023-03-21T03:34:19.513Z,99.99
2023-03-21T03:35:19.494Z,99.99
2023-03-21T03:36:31.132Z,99.99
2023-03-21T03:37:19.464Z,99.99
2023-03-21T03:38:19.482Z,99.99
2023-03-21T03:39:19.449Z,99.99
2023-03-21T03:40:19.446Z,99.99
2023-03-21T03:41:19.741Z,99.99
2023-03-21T03:42:28.153Z,99.99
2023-03-21T03:43:19.415Z,99.99
2023-03-21T03:44:19.436Z,99.99
2023-03-21T03:45:19.380Z,99.99
2023-03-21T03:46:19.448Z,99.99
2023-03-21T03:47:31.733Z,99.99
2023-03-21T03:48:19.423Z,99.99
2023-03-21T03:49:19.350Z,99.99
2023-03-21T03:50:19.343Z,99.99
2023-03-21T03:51:19.325Z,99.99
2023-03-21T03:52:19.349Z,99.99
2023-03-21T03:53:19.296Z,99.99
2023-03-21T03:54:19.302Z,99.99
2023-03-21T03:55:19.310Z,99.99
2023-03-21T03:56:19.315Z,99.99
2023-03-21T03:57:19.292Z,99.99
2023-03-21T03:58:23.784Z,99.99
2023-03-21T03:59:19.285Z,99.99
2023-03-21T04:00:19.285Z,99.99
2023-03-21T04:01:19.258Z,99.99
2023-03-21T04:02:19.375Z,99.99
2023-03-21T04:03:19.225Z,99.99
2023-03-21T04:04:19.241Z,99.99
2023-03-21T04:05:19.189Z,99.99
2023-03-21T04:06:19.171Z,99.99
2023-03-21T04:07:19.623Z,99.99
2023-03-21T04:08:19.251Z,99.99
2023-03-21T04:09:24.978Z,99.99
2023-03-21T04:10:19.223Z,99.99
2023-03-21T04:11:19.135Z,99.99
2023-03-21T04:12:19.132Z,99.99
2023-03-21T04:13:19.241Z,99.99
2023-03-21T04:14:19.103Z,99.99
2023-03-21T04:15:19.071Z,99.99
2023-03-21T04:16:19.147Z,99.99
2023-03-21T04:17:19.180Z,99.99
2023-03-21T04:18:19.078Z,99.99
2023-03-21T04:19:19.287Z,99.99
2023-03-21T04:20:30.282Z,99.99
2023-03-21T04:21:19.091Z,99.99
2023-03-21T04:22:19.026Z,99.99
2023-03-21T04:23:19.030Z,99.99
2023-03-21T04:24:19.285Z,99.99
2023-03-21T04:25:30.802Z,99.99
2023-03-21T04:26:19.200Z,99.99
2023-03-21T04:27:19.222Z,99.99
2023-03-21T04:28:19.072Z,99.99
2023-03-21T04:29:18.965Z,99.99
2023-03-21T04:30:19.018Z,99.99
2023-03-21T04:31:25.636Z,99.99
2023-03-21T04:32:19.064Z,99.99
2023-03-21T04:33:19.050Z,99.99
2023-03-21T04:34:18.888Z,99.99
2023-03-21T04:35:18.918Z,99.99
2023-03-21T04:36:19.134Z,99.99
2023-03-21T04:37:19.195Z,99.99
2023-03-21T04:38:19.187Z,99.99
2023-03-21T04:39:18.851Z,99.99
2023-03-21T04:40:18.924Z,99.99
2023-03-21T04:41:18.913Z,99.99
2023-03-21T04:42:19.088Z,99.99
2023-03-21T04:43:18.769Z,99.99
2023-03-21T04:44:18.808Z,99.99
2023-03-21T04:45:18.751Z,99.99
2023-03-21T04:46:18.765Z,99.99
2023-03-21T04:47:18.736Z,99.99
2023-03-21T04:48:18.775Z,99.99
2023-03-21T04:49:18.731Z,99.99
2023-03-21T04:50:18.744Z,99.99
2023-03-21T04:51:18.707Z,99.99
2023-03-21T04:52:18.715Z,99.99
2023-03-21T04:53:18.731Z,99.99
2023-03-21T04:54:18.691Z,99.99
2023-03-21T04:55:18.637Z,99.99
2023-03-21T04:56:18.688Z,99.99
2023-03-21T04:57:18.690Z,99.99
2023-03-21T04:58:18.672Z,99.99
2023-03-21T04:59:18.633Z,99.99
2023-03-21T05:00:18.705Z,99.99
2023-03-21T05:01:18.703Z,99.99
2023-03-21T05:02:18.682Z,99.99
2023-03-21T05:03:18.588Z,99.99
2023-03-21T05:04:18.722Z,99.99
2023-03-21T05:05:18.555Z,99.99
2023-03-21T05:06:18.526Z,99.99
2023-03-21T05:07:18.508Z,99.99
2023-03-21T05:08:18.509Z,99.99
2023-03-21T05:09:18.515Z,99.99
2023-03-21T05:10:18.473Z,99.99
2023-03-21T05:11:18.454Z,99.99
2023-03-21T05:12:18.416Z,99.99
2023-03-21T05:13:18.392Z,99.99
2023-03-21T05:14:18.408Z,99.99
2023-03-21T05:15:18.368Z,99.99
2023-03-21T05:16:18.478Z,99.99
2023-03-21T05:17:18.385Z,99.99
2023-03-21T05:18:18.340Z,99.99
2023-03-21T05:19:18.341Z,99.99
2023-03-21T05:20:18.447Z,99.99
2023-03-21T05:21:18.487Z,99.99
2023-03-21T05:22:18.360Z,99.99
2023-03-21T05:23:18.337Z,99.99
2023-03-21T05:24:18.295Z,99.99
2023-03-21T05:25:18.352Z,99.99
2023-03-21T05:26:18.456Z,99.99
2023-03-21T05:27:18.389Z,99.99
2023-03-21T05:28:18.440Z,99.99
2023-03-21T05:29:18.269Z,99.99
2023-03-21T05:30:18.249Z,99.99
2023-03-21T05:31:18.292Z,99.99
2023-03-21T05:32:18.233Z,99.99
2023-03-21T05:33:18.441Z,99.99
2023-03-21T05:34:18.227Z,99.99
2023-03-21T05:35:18.402Z,99.99
2023-03-21T05:36:18.257Z,99.99
2023-03-21T05:37:18.222Z,99.99
2023-03-21T05:38:18.146Z,99.99
2023-03-21T05:39:18.253Z,99.99
2023-03-21T05:40:18.141Z,99.99
2023-03-21T05:41:19.270Z,99.99
2023-03-21T05:42:18.328Z,99.99
2023-03-21T05:43:18.189Z,99.99
2023-03-21T05:44:18.119Z,99.99
2023-03-21T05:45:18.138Z,99.99
2023-03-21T05:46:18.103Z,99.99
2023-03-21T05:47:18.095Z,99.99
2023-03-21T05:48:18.091Z,99.99
2023-03-21T05:49:18.086Z,99.99
2023-03-21T05:50:18.041Z,99.99
2023-03-21T05:51:18.022Z,99.99
2023-03-21T05:52:18.035Z,99.99
2023-03-21T05:53:17.975Z,99.99
2023-03-21T05:54:17.972Z,99.99
2023-03-21T05:55:17.958Z,99.99
2023-03-21T05:56:17.940Z,99.99
2023-03-21T05:57:17.940Z,99.99
2023-03-21T05:58:17.938Z,99.99
2023-03-21T05:59:17.912Z,99.99
2023-03-21T06:00:17.909Z,99.99
2023-03-21T06:01:17.911Z,99.99
2023-03-21T06:02:17.891Z,99.99
2023-03-21T06:03:17.873Z,99.99
2023-03-21T06:04:17.934Z,99.99
2023-03-21T06:05:17.869Z,99.99
2023-03-21T06:06:18.221Z,99.99
2023-03-21T06:07:17.832Z,99.99
2023-03-21T06:08:17.901Z,99.99
2023-03-21T06:09:17.961Z,99.99
2023-03-21T06:10:17.957Z,99.99
2023-03-21T06:11:17.832Z,99.99
2023-03-21T06:12:18.630Z,99.99
2023-03-21T06:13:17.821Z,99.99
2023-03-21T06:14:17.766Z,99.99
2023-03-21T06:15:17.768Z,99.99
2023-03-21T06:16:18.866Z,99.99
2023-03-21T06:17:17.737Z,99.99
2023-03-21T06:18:17.718Z,99.99
2023-03-21T06:19:17.739Z,99.99
2023-03-21T06:20:17.758Z,99.99
2023-03-21T06:21:17.793Z,99.99
2023-03-21T06:22:17.651Z,99.99
2023-03-21T06:23:17.679Z,99.99
2023-03-21T06:24:17.685Z,99.99
2023-03-21T06:25:17.663Z,99.99
2023-03-21T06:26:17.638Z,99.99
2023-03-21T06:27:17.612Z,99.99
2023-03-21T06:28:17.598Z,99.99
2023-03-21T06:29:17.715Z,99.99
2023-03-21T06:30:17.580Z,99.99
2023-03-21T06:31:17.668Z,99.99
2023-03-21T06:32:17.577Z,99.99
2023-03-21T06:33:17.584Z,99.99
2023-03-21T06:34:17.544Z,99.99
2023-03-21T06:35:17.524Z,99.99
2023-03-21T06:36:17.523Z,99.99
2023-03-21T06:37:17.588Z,99.99
2023-03-21T06:38:17.541Z,99.99
2023-03-21T06:39:17.516Z,99.99
2023-03-21T06:40:17.485Z,99.99
2023-03-21T06:41:17.491Z,99.99
2023-03-21T06:42:17.443Z,99.99
2023-03-21T06:43:17.459Z,99.99
2023-03-21T06:44:17.440Z,99.99
2023-03-21T06:45:17.430Z,99.99
2023-03-21T06:46:17.574Z,99.99
2023-03-21T06:48:28.338Z,99.99
2023-03-21T06:49:29.317Z,99.99
2023-03-21T06:50:29.341Z,99.99
2023-03-21T06:51:29.461Z,99.99
2023-03-21T06:52:29.263Z,99.99
2023-03-21T06:53:29.497Z,99.99
2023-03-21T06:54:29.490Z,99.99
2023-03-21T06:55:29.193Z,99.99
2023-03-21T06:56:29.150Z,99.99
2023-03-21T06:57:29.168Z,99.99
2023-03-21T06:58:29.152Z,99.99
2023-03-21T06:59:29.177Z,99.99
2023-03-21T07:00:29.165Z,99.99
2023-03-21T07:01:29.279Z,99.99
2023-03-21T07:02:29.189Z,99.99
2023-03-21T07:03:29.136Z,99.99
2023-03-21T07:04:29.088Z,99.99
2023-03-21T07:05:29.113Z,99.99
2023-03-21T07:06:29.057Z,99.99
2023-03-21T07:07:29.150Z,99.99
2023-03-21T07:08:29.087Z,99.99
2023-03-21T07:09:29.028Z,99.99
2023-03-21T07:10:29.048Z,99.99
2023-03-21T07:11:29.042Z,99.99
2023-03-21T07:12:28.984Z,99.99
2023-03-21T07:13:29.017Z,99.99
2023-03-21T07:14:28.983Z,99.99
2023-03-21T07:15:29.014Z,99.99
2023-03-21T07:16:28.990Z,99.99
2023-03-21T07:17:28.962Z,99.99
2023-03-21T07:18:29.018Z,99.99
2023-03-21T07:19:28.938Z,99.99
2023-03-21T07:20:29.009Z,99.99
2023-03-21T07:21:28.903Z,99.99
2023-03-21T07:22:28.890Z,99.99
2023-03-21T07:23:28.907Z,99.99
2023-03-21T07:24:28.866Z,99.99
2023-03-21T07:25:28.985Z,99.99
2023-03-21T07:26:28.877Z,99.99
2023-03-21T07:27:29.056Z,99.99
2023-03-21T07:28:29.021Z,99.99
2023-03-21T07:29:28.868Z,99.99
2023-03-21T07:30:29.113Z,99.99
2023-03-21T07:31:28.964Z,99.99
2023-03-21T07:32:28.813Z,99.99
2023-03-21T07:33:29.144Z,99.99
2023-03-21T07:34:28.940Z,99.99
2023-03-21T07:35:29.032Z,99.99
2023-03-21T07:36:28.775Z,99.99
2023-03-21T07:37:29.737Z,99.99
2023-03-21T07:38:29.060Z,99.99
2023-03-21T07:39:28.726Z,99.99
2023-03-21T07:40:29.021Z,99.99
2023-03-21T07:41:28.945Z,99.99
2023-03-21T07:42:29.317Z,99.99
2023-03-21T07:43:28.844Z,99.99
2023-03-21T07:44:28.774Z,99.99
2023-03-21T07:45:28.733Z,99.99
2023-03-21T07:46:29.105Z,99.99
2023-03-21T07:47:28.812Z,99.99
2023-03-21T07:48:28.648Z,99.99
2023-03-21T07:49:28.608Z,99.99
2023-03-21T07:50:28.654Z,99.99
2023-03-21T07:51:28.584Z,99.99
2023-03-21T07:52:28.640Z,99.99
2023-03-21T07:53:28.586Z,99.99
2023-03-21T07:54:28.546Z,99.99
2023-03-21T07:55:28.538Z,99.99
2023-03-21T07:56:28.550Z,99.99
2023-03-21T07:57:28.730Z,99.99
2023-03-21T07:58:28.590Z,99.99
2023-03-21T07:59:28.665Z,99.99
2023-03-21T08:00:28.554Z,99.99
2023-03-21T08:01:28.509Z,99.99
2023-03-21T08:02:28.667Z,99.99
2023-03-21T08:03:28.507Z,99.99
2023-03-21T08:04:29.153Z,99.99
2023-03-21T08:05:28.443Z,99.99
2023-03-21T08:06:28.419Z,99.99
2023-03-21T08:07:28.424Z,99.99
2023-03-21T08:08:28.386Z,99.99
2023-03-21T08:09:30.739Z,99.99
2023-03-21T08:10:28.505Z,99.99
2023-03-21T08:11:28.368Z,99.99
2023-03-21T08:12:28.351Z,99.99
2023-03-21T08:13:28.343Z,99.99
2023-03-21T08:14:28.352Z,99.99
2023-03-21T08:15:28.423Z,99.99
2023-03-21T08:16:28.500Z,99.99
2023-03-21T08:17:28.332Z,99.99
2023-03-21T08:18:28.300Z,99.99
2023-03-21T08:19:28.360Z,99.99
2023-03-21T08:20:28.304Z,99.99
2023-03-21T08:21:28.284Z,99.99
2023-03-21T08:22:28.269Z,99.99
2023-03-21T08:23:28.269Z,99.99
2023-03-21T08:24:28.240Z,99.99
2023-03-21T08:25:28.252Z,99.99
2023-03-21T08:26:28.237Z,99.99
2023-03-21T08:27:28.680Z,99.99
2023-03-21T08:28:28.313Z,99.99
2023-03-21T08:29:28.469Z,99.99
2023-03-21T08:30:28.217Z,99.99
2023-03-21T08:31:28.195Z,99.99
2023-03-21T08:32:28.145Z,99.99
2023-03-21T08:33:28.163Z,99.99
2023-03-21T08:34:28.122Z,99.99
2023-03-21T08:35:28.140Z,99.99
2023-03-21T08:36:28.094Z,99.99
2023-03-21T08:37:28.093Z,99.99
2023-03-21T08:38:28.070Z,99.99
2023-03-21T08:39:28.564Z,99.99
2023-03-21T08:40:28.225Z,99.99
2023-03-21T08:41:28.149Z,99.99
2023-03-21T08:42:28.043Z,99.99
2023-03-21T08:43:28.051Z,99.99
2023-03-21T08:44:28.568Z,99.99
2023-03-21T08:45:28.061Z,99.99
2023-03-21T08:46:28.005Z,99.99
2023-03-21T08:47:27.991Z,99.99
2023-03-21T08:48:29.072Z,99.99
2023-03-21T08:49:28.027Z,99.99
2023-03-21T08:50:27.989Z,99.99
2023-03-21T08:51:28.030Z,99.99
2023-03-21T08:52:27.974Z,99.99
2023-03-21T08:53:27.944Z,99.99
2023-03-21T08:54:27.949Z,99.99
2023-03-21T08:55:27.917Z,99.99
2023-03-21T08:56:27.877Z,99.99
2023-03-21T08:57:27.921Z,99.99
2023-03-21T08:58:29.420Z,99.99
2023-03-21T08:59:27.859Z,99.99
2023-03-21T09:00:27.918Z,99.99
2023-03-21T09:01:27.886Z,99.99
2023-03-21T09:02:27.844Z,99.99
2023-03-21T09:03:27.812Z,99.99
2023-03-21T09:04:27.933Z,99.99
2023-03-21T09:05:28.491Z,99.99
2023-03-21T09:06:27.856Z,99.99
2023-03-21T09:07:27.816Z,99.99
2023-03-21T09:08:28.617Z,99.99
2023-03-21T09:09:27.895Z,99.99
2023-03-21T09:10:27.726Z,99.99
2023-03-21T09:11:27.741Z,99.99
2023-03-21T09:12:27.771Z,99.99
2023-03-21T09:13:27.780Z,99.99
2023-03-21T09:14:29.127Z,99.99
2023-03-21T09:15:27.688Z,99.99
2023-03-21T09:16:27.694Z,99.99
2023-03-21T09:17:27.716Z,99.99
2023-03-21T09:18:27.761Z,99.99
2023-03-21T09:19:27.657Z,99.99
2023-03-21T09:20:27.686Z,99.99
2023-03-21T09:21:27.628Z,99.52
2023-03-21T09:22:27.630Z,98.61
2023-03-21T09:23:27.652Z,98.40
2023-03-21T09:24:27.732Z,97.94
2023-03-21T09:25:27.601Z,98.35
2023-03-21T09:26:27.687Z,99.68
2023-03-21T09:27:27.548Z,99.99
2023-03-21T09:28:27.537Z,99.93
2023-03-21T09:29:27.575Z,99.43
2023-03-21T09:30:27.572Z,99.99
2023-03-21T09:31:27.563Z,99.16
2023-03-21T09:32:27.491Z,98.65
2023-03-21T09:33:27.489Z,98.65
2023-03-21T09:34:27.514Z,99.47
2023-03-21T09:35:27.494Z,99.31
2023-03-21T09:36:27.456Z,99.01
2023-03-21T09:37:27.461Z,99.31
2023-03-21T09:38:27.439Z,99.82
2023-03-21T09:39:27.450Z,99.99
2023-03-21T09:40:27.425Z,99.99
2023-03-21T09:41:27.424Z,99.99
2023-03-21T09:42:27.390Z,99.52
2023-03-21T09:43:27.423Z,99.11
2023-03-21T09:44:27.431Z,99.41
2023-03-21T09:45:27.381Z,99.99
2023-03-21T09:46:27.447Z,99.99
2023-03-21T09:47:27.345Z,99.82
2023-03-21T09:48:27.527Z,99.99
2023-03-21T09:49:27.333Z,99.56
2023-03-21T09:50:27.705Z,99.66
2023-03-21T09:51:27.305Z,99.99
2023-03-21T09:52:27.290Z,99.99
2023-03-21T09:53:27.325Z,99.99
2023-03-21T09:54:27.531Z,99.99
2023-03-21T09:55:27.629Z,99.56
2023-03-21T09:56:27.292Z,99.99
2023-03-21T09:57:27.269Z,99.99
2023-03-21T09:58:27.269Z,99.98
2023-03-21T09:59:27.404Z,99.77
2023-03-21T10:00:27.375Z,99.99
2023-03-21T10:01:27.297Z,99.26
2023-03-21T10:02:27.463Z,99.26
2023-03-21T10:03:27.169Z,99.36
2023-03-21T10:04:27.257Z,99.46
2023-03-21T10:05:27.146Z,99.66
2023-03-21T10:06:27.191Z,99.87
2023-03-21T10:07:27.120Z,99.30
2023-03-21T10:08:27.270Z,99.41
2023-03-21T10:09:27.105Z,99.91
2023-03-21T10:10:27.112Z,99.99
2023-03-21T10:11:27.122Z,99.99
2023-03-21T10:12:27.056Z,99.99
2023-03-21T10:13:27.048Z,99.99
2023-03-21T10:14:27.053Z,99.99
2023-03-21T10:15:27.033Z,99.99
2023-03-21T10:16:27.060Z,99.99
2023-03-21T10:17:27.016Z,99.99
2023-03-21T10:18:27.003Z,99.99
2023-03-21T10:19:27.001Z,99.99
2023-03-21T10:20:27.009Z,99.99
2023-03-21T10:21:56.487Z,99.99
2023-03-21T10:22:26.967Z,99.99
2023-03-21T10:23:26.947Z,99.71
2023-03-21T10:24:26.945Z,99.46
2023-03-21T10:25:26.925Z,99.36
2023-03-21T10:26:26.947Z,98.95
2023-03-21T10:27:26.975Z,98.70
2023-03-21T10:28:26.920Z,99.41
2023-03-21T10:29:27.039Z,99.06
2023-03-21T10:30:26.951Z,98.91
2023-03-21T10:31:27.100Z,98.40
2023-03-21T10:32:26.937Z,97.89
2023-03-21T10:33:26.835Z,97.28
2023-03-21T10:34:26.871Z,96.36
2023-03-21T10:35:26.860Z,97.58
2023-03-21T10:36:26.854Z,97.54
2023-03-21T10:37:26.850Z,97.54
2023-03-21T10:38:26.798Z,97.95
2023-03-21T10:39:26.800Z,97.39
2023-03-21T10:40:26.847Z,95.76
2023-03-21T10:41:26.779Z,94.58
2023-03-21T10:42:26.799Z,96.01
2023-03-21T10:43:26.744Z,96.51
2023-03-21T10:44:26.724Z,95.90
2023-03-21T10:45:26.720Z,95.29
2023-03-21T10:46:26.921Z,94.98
2023-03-21T10:47:27.125Z,95.75
2023-03-21T10:48:26.864Z,96.15
2023-03-21T10:49:26.907Z,96.87
2023-03-21T10:50:26.721Z,97.08
2023-03-21T10:51:26.681Z,96.97
2023-03-21T10:52:26.644Z,96.56
2023-03-21T10:53:26.680Z,97.49
2023-03-21T10:54:26.640Z,98.15
2023-03-21T10:55:26.599Z,97.24
2023-03-21T10:56:26.723Z,96.51
2023-03-21T10:57:26.615Z,95.95
2023-03-21T10:58:26.658Z,96.26
2023-03-21T10:59:26.562Z,96.05
2023-03-21T11:00:26.636Z,96.77
2023-03-21T11:01:26.613Z,96.77
2023-03-21T11:02:26.706Z,96.36
2023-03-21T11:03:26.573Z,97.38
2023-03-21T11:04:26.525Z,97.08
2023-03-21T11:05:26.492Z,97.49
2023-03-21T11:06:26.564Z,96.81
2023-03-21T11:07:26.525Z,96.81
2023-03-21T11:08:26.570Z,97.74
2023-03-21T11:09:26.508Z,98.55
2023-03-21T11:10:28.849Z,98.86
2023-03-21T11:11:26.482Z,97.94
2023-03-21T11:12:26.446Z,97.74
2023-03-21T11:13:26.453Z,97.42
2023-03-21T11:14:29.853Z,97.53
2023-03-21T11:15:26.394Z,97.83
2023-03-21T11:16:26.529Z,97.94
2023-03-21T11:17:26.355Z,98.24
2023-03-21T11:18:26.391Z,97.74
2023-03-21T11:19:26.397Z,98.35
2023-03-21T11:20:26.340Z,98.24
2023-03-21T11:21:26.330Z,97.42
2023-03-21T11:22:26.370Z,96.81
2023-03-21T11:23:26.322Z,97.42
2023-03-21T11:24:26.388Z,97.02
2023-03-21T11:25:26.319Z,97.33
2023-03-21T11:26:26.278Z,96.75
2023-03-21T11:27:26.261Z,97.94
2023-03-21T11:28:26.266Z,98.65
2023-03-21T11:29:26.267Z,98.65
2023-03-21T11:30:26.289Z,98.55
2023-03-21T11:31:26.516Z,98.14
2023-03-21T11:32:26.511Z,97.83
2023-03-21T11:33:26.519Z,97.63
2023-03-21T11:34:26.228Z,98.24
2023-03-21T11:35:26.186Z,98.35
2023-03-21T11:36:26.228Z,98.70
2023-03-21T11:37:26.194Z,98.75
2023-03-21T11:38:26.164Z,98.90
2023-03-21T11:39:26.153Z,98.80
2023-03-21T11:40:26.201Z,99.06
2023-03-21T11:41:26.108Z,99.47
2023-03-21T11:42:26.127Z,99.06
2023-03-21T11:43:26.107Z,99.78
2023-03-21T11:44:26.221Z,99.68
2023-03-21T11:45:26.216Z,99.47
2023-03-21T11:46:26.156Z,99.88
2023-03-21T11:47:26.052Z,99.99
2023-03-21T11:48:26.087Z,99.99
2023-03-21T11:49:26.064Z,99.99
2023-03-21T11:50:26.030Z,99.73
2023-03-21T11:51:26.058Z,99.73
2023-03-21T11:52:26.069Z,98.71
2023-03-21T11:53:26.059Z,98.71
2023-03-21T11:54:26.082Z,98.50
2023-03-21T11:55:25.967Z,99.02
2023-03-21T11:56:26.027Z,97.99
2023-03-21T11:57:25.993Z,98.15
2023-03-21T11:58:26.110Z,98.05
2023-03-21T11:59:25.932Z,97.33
2023-03-21T12:00:26.146Z,97.70
2023-03-21T12:01:25.905Z,95.96
2023-03-21T12:02:25.963Z,96.68
2023-03-21T12:03:27.339Z,96.17
2023-03-21T12:04:25.961Z,96.53
2023-03-21T12:05:25.858Z,95.72
2023-03-21T12:06:26.064Z,96.84
2023-03-21T12:07:25.853Z,96.59
2023-03-21T12:08:25.852Z,93.57
2023-03-21T12:09:25.854Z,93.37
2023-03-21T12:10:26.034Z,93.32
2023-03-21T12:11:25.918Z,93.22
2023-03-21T12:12:37.979Z,93.38
2023-03-21T12:13:25.837Z,93.48
2023-03-21T12:14:25.777Z,92.32
2023-03-21T12:15:25.791Z,91.75
2023-03-21T12:16:26.031Z,91.61
2023-03-21T12:17:26.548Z,91.20
2023-03-21T12:18:25.906Z,90.99
2023-03-21T12:19:25.923Z,91.05
2023-03-21T12:20:25.773Z,91.26
2023-03-21T12:21:25.706Z,90.34
2023-03-21T12:22:25.694Z,88.65
2023-03-21T12:23:27.021Z,88.49
2023-03-21T12:24:25.730Z,89.30
2023-03-21T12:25:25.775Z,89.81
2023-03-21T12:26:25.737Z,90.53
2023-03-21T12:27:25.732Z,90.73
2023-03-21T12:28:32.595Z,90.79
2023-03-21T12:29:26.205Z,90.59
2023-03-21T12:30:25.693Z,90.18
2023-03-21T12:31:25.939Z,90.03
2023-03-21T12:32:25.955Z,90.03
2023-03-21T12:33:25.551Z,89.42
2023-03-21T12:34:25.575Z,89.06
2023-03-21T12:35:25.552Z,90.48
2023-03-21T12:36:25.551Z,90.69
2023-03-21T12:37:25.503Z,90.18
2023-03-21T12:38:25.502Z,89.06
2023-03-21T12:39:25.510Z,88.45
2023-03-21T12:40:25.556Z,89.57
2023-03-21T12:41:25.469Z,89.26
2023-03-21T12:42:25.492Z,88.65
2023-03-21T12:43:25.572Z,89.06
2023-03-21T12:44:25.517Z,86.71
2023-03-21T12:45:26.119Z,86.51
2023-03-21T12:46:25.589Z,86.24
2023-03-21T12:47:25.412Z,86.04
2023-03-21T12:48:25.479Z,86.65
2023-03-21T12:49:33.637Z,86.86
2023-03-21T12:50:25.382Z,86.96
2023-03-21T12:51:25.382Z,87.88
2023-03-21T12:52:25.475Z,87.32
2023-03-21T12:53:25.394Z,86.71
2023-03-21T12:54:25.508Z,86.00
2023-03-21T12:55:25.326Z,86.71
2023-03-21T12:56:25.356Z,86.30
2023-03-21T12:57:25.309Z,87.12
2023-03-21T12:58:25.329Z,85.60
2023-03-21T12:59:25.279Z,86.00
2023-03-21T13:00:25.335Z,85.90
2023-03-21T13:01:25.401Z,86.51
2023-03-21T13:02:25.347Z,87.23
2023-03-21T13:03:37.207Z,84.78
2023-03-21T13:04:25.274Z,84.98
2023-03-21T13:05:25.289Z,85.28
2023-03-21T13:06:25.230Z,85.60
2023-03-21T13:07:25.237Z,85.39
2023-03-21T13:08:25.201Z,85.49
2023-03-21T13:09:36.683Z,85.60
2023-03-21T13:10:25.154Z,85.86
2023-03-21T13:11:25.188Z,85.19